sensor_id;sensor_type;location;lat;lon;timestamp;temperature;humidity
7518;DHT22;3800;48.922;9.444;2023-03-14T00:01:20;9.40;99.90
7518;DHT22;3800;48.922;9.444;2023-03-14T00:03:47;9.40;99.90
7518;DHT22;3800;48.922;9.444;2023-03-14T00:06:15;9.40;99.90
7518;DHT22;3800;48.922;9.444;2023-03-14T00:08:43;9.40;99.90
7518;DHT22;3800;48.922;9.444;2023-03-14T00:11:12;9.40;99.90
7518;DHT22;3800;48.922;9.444;2023-03-14T00:13:38;9.40;99.90
7518;DHT22;3800;48.922;9.444;2023-03-14T00:16:08;9.40;99.90
7518;DHT22;3800;48.922;9.444;2023-03-14T00:18:35;9.40;99.90
7518;DHT22;3800;48.922;9.444;2023-03-14T00:21:03;9.40;99.90
7518;DHT22;3800;48.922;9.444;2023-03-14T00:23:31;9.40;99.90
7518;DHT22;3800;48.922;9.444;2023-03-14T00:25:59;9.40;99.90
7518;DHT22;3800;48.922;9.444;2023-03-14T00:28:26;9.50;99.90
7518;DHT22;3800;48.922;9.444;2023-03-14T00:30:54;9.50;99.90
7518;DHT22;3800;48.922;9.444;2023-03-14T00:33:22;9.50;99.90
7518;DHT22;3800;48.922;9.444;2023-03-14T00:35:56;9.50;99.90
7518;DHT22;3800;48.922;9.444;2023-03-14T00:38:23;9.50;99.90
7518;DHT22;3800;48.922;9.444;2023-03-14T00:40:51;9.60;99.90
7518;DHT22;3800;48.922;9.444;2023-03-14T00:43:19;9.60;99.90
7518;DHT22;3800;48.922;9.444;2023-03-14T00:45:47;9.60;99.90
7518;DHT22;3800;48.922;9.444;2023-03-14T00:48:14;9.60;99.90
7518;DHT22;3800;48.922;9.444;2023-03-14T00:50:43;9.70;99.90
7518;DHT22;3800;48.922;9.444;2023-03-14T00:53:10;9.70;99.90
7518;DHT22;3800;48.922;9.444;2023-03-14T00:55:39;9.70;99.90
7518;DHT22;3800;48.922;9.444;2023-03-14T00:58:06;9.70;99.90
7518;DHT22;3800;48.922;9.444;2023-03-14T01:00:35;9.70;99.90
7518;DHT22;3800;48.922;9.444;2023-03-14T01:03:02;9.70;99.90
7518;DHT22;3800;48.922;9.444;2023-03-14T01:05:29;9.70;99.90
7518;DHT22;3800;48.922;9.444;2023-03-14T01:07:57;9.70;99.90
7518;DHT22;3800;48.922;9.444;2023-03-14T01:10:25;9.70;99.90
7518;DHT22;3800;48.922;9.444;2023-03-14T01:12:52;9.70;99.90
7518;DHT22;3800;48.922;9.444;2023-03-14T01:15:20;9.70;99.90
7518;DHT22;3800;48.922;9.444;2023-03-14T01:17:48;9.70;99.90
7518;DHT22;3800;48.922;9.444;2023-03-14T01:20:18;9.70;99.90
7518;DHT22;3800;48.922;9.444;2023-03-14T01:22:44;9.70;99.90
7518;DHT22;3800;48.922;9.444;2023-03-14T01:25:14;9.70;99.90
7518;DHT22;3800;48.922;9.444;2023-03-14T01:27:39;9.70;99.90
7518;DHT22;3800;48.922;9.444;2023-03-14T01:30:08;9.70;99.90
7518;DHT22;3800;48.922;9.444;2023-03-14T01:32:36;9.70;99.90
7518;DHT22;3800;48.922;9.444;2023-03-14T01:35:04;9.70;99.90
7518;DHT22;3800;48.922;9.444;2023-03-14T01:37:32;9.80;99.90
7518;DHT22;3800;48.922;9.444;2023-03-14T01:40:01;9.80;99.90
7518;DHT22;3800;48.922;9.444;2023-03-14T01:42:29;9.80;99.90
7518;DHT22;3800;48.922;9.444;2023-03-14T01:44:58;9.80;99.90
7518;DHT22;3800;48.922;9.444;2023-03-14T01:47:26;9.80;99.90
7518;DHT22;3800;48.922;9.444;2023-03-14T01:49:59;9.80;99.90
7518;DHT22;3800;48.922;9.444;2023-03-14T01:52:27;9.70;99.90
7518;DHT22;3800;48.922;9.444;2023-03-14T01:54:55;9.70;99.90
7518;DHT22;3800;48.922;9.444;2023-03-14T01:57:26;9.70;99.90
7518;DHT22;3800;48.922;9.444;2023-03-14T01:59:55;9.70;99.90
7518;DHT22;3800;48.922;9.444;2023-03-14T02:02:21;9.70;99.90
7518;DHT22;3800;48.922;9.444;2023-03-14T02:04:49;9.70;99.90
7518;DHT22;3800;48.922;9.444;2023-03-14T02:07:20;9.60;99.90
7518;DHT22;3800;48.922;9.444;2023-03-14T02:09:47;9.70;99.90
7518;DHT22;3800;48.922;9.444;2023-03-14T02:12:15;9.70;99.90
7518;DHT22;3800;48.922;9.444;2023-03-14T02:14:42;9.70;99.90
7518;DHT22;3800;48.922;9.444;2023-03-14T02:17:10;9.70;99.90
7518;DHT22;3800;48.922;9.444;2023-03-14T02:20:00;9.80;99.90
7518;DHT22;3800;48.922;9.444;2023-03-14T02:22:24;9.80;99.90
7518;DHT22;3800;48.922;9.444;2023-03-14T02:25:11;9.70;99.90
7518;DHT22;3800;48.922;9.444;2023-03-14T02:27:36;9.70;99.90
7518;DHT22;3800;48.922;9.444;2023-03-14T02:30:08;9.60;99.90
7518;DHT22;3800;48.922;9.444;2023-03-14T02:32:37;9.40;99.90
7518;DHT22;3800;48.922;9.444;2023-03-14T02:35:07;9.40;99.90
7518;DHT22;3800;48.922;9.444;2023-03-14T02:37:37;9.40;99.90
7518;DHT22;3800;48.922;9.444;2023-03-14T02:40:03;9.40;99.90
7518;DHT22;3800;48.922;9.444;2023-03-14T02:42:31;9.40;99.90
7518;DHT22;3800;48.922;9.444;2023-03-14T02:45:25;9.30;99.90
7518;DHT22;3800;48.922;9.444;2023-03-14T02:47:29;9.30;99.90
7518;DHT22;3800;48.922;9.444;2023-03-14T02:49:58;9.30;99.90
7518;DHT22;3800;48.922;9.444;2023-03-14T02:52:25;9.30;99.90
7518;DHT22;3800;48.922;9.444;2023-03-14T02:54:54;9.40;99.90
7518;DHT22;3800;48.922;9.444;2023-03-14T02:57:21;9.40;99.90
7518;DHT22;3800;48.922;9.444;2023-03-14T02:59:49;9.50;99.90
7518;DHT22;3800;48.922;9.444;2023-03-14T03:02:17;9.50;99.90
7518;DHT22;3800;48.922;9.444;2023-03-14T03:04:44;9.50;99.90
7518;DHT22;3800;48.922;9.444;2023-03-14T03:07:12;9.50;99.90
7518;DHT22;3800;48.922;9.444;2023-03-14T03:09:40;9.60;99.90
7518;DHT22;3800;48.922;9.444;2023-03-14T03:12:08;9.60;99.90
7518;DHT22;3800;48.922;9.444;2023-03-14T03:14:35;9.60;99.90
7518;DHT22;3800;48.922;9.444;2023-03-14T03:17:04;9.60;99.90
7518;DHT22;3800;48.922;9.444;2023-03-14T03:19:32;9.70;99.90
7518;DHT22;3800;48.922;9.444;2023-03-14T03:22:01;9.60;99.90
7518;DHT22;3800;48.922;9.444;2023-03-14T03:24:28;9.60;99.90
7518;DHT22;3800;48.922;9.444;2023-03-14T03:26:57;9.60;99.90
7518;DHT22;3800;48.922;9.444;2023-03-14T03:29:25;9.60;99.90
7518;DHT22;3800;48.922;9.444;2023-03-14T03:31:53;9.60;99.90
7518;DHT22;3800;48.922;9.444;2023-03-14T03:34:20;9.50;99.90
7518;DHT22;3800;48.922;9.444;2023-03-14T03:36:49;9.50;99.90
7518;DHT22;3800;48.922;9.444;2023-03-14T03:39:16;9.50;99.90
7518;DHT22;3800;48.922;9.444;2023-03-14T03:41:44;9.50;99.90
7518;DHT22;3800;48.922;9.444;2023-03-14T03:44:12;9.50;99.90
7518;DHT22;3800;48.922;9.444;2023-03-14T03:46:40;9.50;99.90
7518;DHT22;3800;48.922;9.444;2023-03-14T03:49:08;9.50;99.90
7518;DHT22;3800;48.922;9.444;2023-03-14T03:51:36;9.40;99.90
7518;DHT22;3800;48.922;9.444;2023-03-14T03:54:04;9.40;99.90
7518;DHT22;3800;48.922;9.444;2023-03-14T03:56:32;9.30;99.90
7518;DHT22;3800;48.922;9.444;2023-03-14T03:59:01;9.30;99.90
7518;DHT22;3800;48.922;9.444;2023-03-14T04:01:29;9.30;99.90
7518;DHT22;3800;48.922;9.444;2023-03-14T04:03:58;9.30;99.90
7518;DHT22;3800;48.922;9.444;2023-03-14T04:06:25;9.20;99.90
7518;DHT22;3800;48.922;9.444;2023-03-14T04:08:54;9.30;99.90
7518;DHT22;3800;48.922;9.444;2023-03-14T04:11:21;9.20;99.90
7518;DHT22;3800;48.922;9.444;2023-03-14T04:13:50;9.30;99.90
7518;DHT22;3800;48.922;9.444;2023-03-14T04:16:19;9.30;99.90
7518;DHT22;3800;48.922;9.444;2023-03-14T04:18:46;9.30;99.90
7518;DHT22;3800;48.922;9.444;2023-03-14T04:21:14;9.30;99.90
7518;DHT22;3800;48.922;9.444;2023-03-14T04:23:41;9.20;99.90
7518;DHT22;3800;48.922;9.444;2023-03-14T04:26:09;9.20;99.90
7518;DHT22;3800;48.922;9.444;2023-03-14T04:28:37;9.20;99.90
7518;DHT22;3800;48.922;9.444;2023-03-14T04:31:08;9.20;99.90
7518;DHT22;3800;48.922;9.444;2023-03-14T04:33:37;9.20;99.90
7518;DHT22;3800;48.922;9.444;2023-03-14T04:36:05;9.10;99.90
7518;DHT22;3800;48.922;9.444;2023-03-14T04:38:33;9.10;99.90
7518;DHT22;3800;48.922;9.444;2023-03-14T04:41:01;9.10;99.90
7518;DHT22;3800;48.922;9.444;2023-03-14T04:43:29;9.10;99.90
7518;DHT22;3800;48.922;9.444;2023-03-14T04:45:57;9.10;99.90
7518;DHT22;3800;48.922;9.444;2023-03-14T04:48:25;9.10;99.90
7518;DHT22;3800;48.922;9.444;2023-03-14T04:50:52;9.10;99.90
7518;DHT22;3800;48.922;9.444;2023-03-14T04:53:21;9.10;99.90
7518;DHT22;3800;48.922;9.444;2023-03-14T04:55:50;9.00;99.90
7518;DHT22;3800;48.922;9.444;2023-03-14T04:58:18;9.00;99.90
7518;DHT22;3800;48.922;9.444;2023-03-14T05:00:46;9.00;99.90
7518;DHT22;3800;48.922;9.444;2023-03-14T05:03:15;9.00;99.90
7518;DHT22;3800;48.922;9.444;2023-03-14T05:05:42;9.00;99.90
7518;DHT22;3800;48.922;9.444;2023-03-14T05:08:10;9.00;99.90
7518;DHT22;3800;48.922;9.444;2023-03-14T05:10:37;8.90;99.90
7518;DHT22;3800;48.922;9.444;2023-03-14T05:13:05;9.00;99.90
7518;DHT22;3800;48.922;9.444;2023-03-14T05:15:33;8.90;99.90
7518;DHT22;3800;48.922;9.444;2023-03-14T05:18:01;8.90;99.90
7518;DHT22;3800;48.922;9.444;2023-03-14T05:20:29;8.90;99.90
7518;DHT22;3800;48.922;9.444;2023-03-14T05:22:56;9.00;99.90
7518;DHT22;3800;48.922;9.444;2023-03-14T05:25:24;8.90;99.90
7518;DHT22;3800;48.922;9.444;2023-03-14T05:27:53;8.90;99.90
7518;DHT22;3800;48.922;9.444;2023-03-14T05:30:19;8.90;99.90
7518;DHT22;3800;48.922;9.444;2023-03-14T05:32:47;8.90;99.90
7518;DHT22;3800;48.922;9.444;2023-03-14T05:35:15;8.90;99.90
7518;DHT22;3800;48.922;9.444;2023-03-14T05:37:43;8.80;99.90
7518;DHT22;3800;48.922;9.444;2023-03-14T05:40:10;8.80;99.90
7518;DHT22;3800;48.922;9.444;2023-03-14T05:42:39;8.80;99.90
7518;DHT22;3800;48.922;9.444;2023-03-14T05:45:07;8.80;99.90
7518;DHT22;3800;48.922;9.444;2023-03-14T05:47:34;8.80;99.90
7518;DHT22;3800;48.922;9.444;2023-03-14T05:50:02;8.80;99.90
7518;DHT22;3800;48.922;9.444;2023-03-14T05:52:30;8.80;99.90
7518;DHT22;3800;48.922;9.444;2023-03-14T05:54:58;8.70;99.90
7518;DHT22;3800;48.922;9.444;2023-03-14T05:57:27;8.80;99.90
7518;DHT22;3800;48.922;9.444;2023-03-14T05:59:54;8.80;99.90
7518;DHT22;3800;48.922;9.444;2023-03-14T06:02:22;8.80;99.90
7518;DHT22;3800;48.922;9.444;2023-03-14T06:04:50;8.80;99.90
7518;DHT22;3800;48.922;9.444;2023-03-14T06:07:17;8.90;99.90
7518;DHT22;3800;48.922;9.444;2023-03-14T06:09:46;8.90;99.90
7518;DHT22;3800;48.922;9.444;2023-03-14T06:12:13;8.90;99.90
7518;DHT22;3800;48.922;9.444;2023-03-14T06:14:41;9.00;99.90
7518;DHT22;3800;48.922;9.444;2023-03-14T06:17:08;9.00;99.90
7518;DHT22;3800;48.922;9.444;2023-03-14T06:19:36;9.00;99.90
7518;DHT22;3800;48.922;9.444;2023-03-14T06:22:04;9.10;99.90
7518;DHT22;3800;48.922;9.444;2023-03-14T06:24:32;9.00;99.90
7518;DHT22;3800;48.922;9.444;2023-03-14T06:27:00;9.00;99.90
7518;DHT22;3800;48.922;9.444;2023-03-14T06:29:29;9.10;99.90
7518;DHT22;3800;48.922;9.444;2023-03-14T06:31:56;9.10;99.90
7518;DHT22;3800;48.922;9.444;2023-03-14T06:34:24;9.00;99.90
7518;DHT22;3800;48.922;9.444;2023-03-14T06:36:51;9.00;99.90
7518;DHT22;3800;48.922;9.444;2023-03-14T06:39:19;9.00;99.90
7518;DHT22;3800;48.922;9.444;2023-03-14T06:41:47;9.00;99.90
7518;DHT22;3800;48.922;9.444;2023-03-14T06:44:14;8.90;99.90
7518;DHT22;3800;48.922;9.444;2023-03-14T06:46:42;8.90;99.90
7518;DHT22;3800;48.922;9.444;2023-03-14T06:49:10;8.90;99.90
7518;DHT22;3800;48.922;9.444;2023-03-14T06:51:38;8.90;99.90
7518;DHT22;3800;48.922;9.444;2023-03-14T06:54:06;9.00;99.90
7518;DHT22;3800;48.922;9.444;2023-03-14T06:56:34;9.00;99.90
7518;DHT22;3800;48.922;9.444;2023-03-14T06:59:03;9.00;99.90
7518;DHT22;3800;48.922;9.444;2023-03-14T07:01:31;9.00;99.90
7518;DHT22;3800;48.922;9.444;2023-03-14T07:04:00;9.10;99.90
7518;DHT22;3800;48.922;9.444;2023-03-14T07:06:27;9.00;99.90
7518;DHT22;3800;48.922;9.444;2023-03-14T07:08:55;9.00;99.90
7518;DHT22;3800;48.922;9.444;2023-03-14T07:11:24;9.10;99.90
7518;DHT22;3800;48.922;9.444;2023-03-14T07:13:51;9.20;99.90
7518;DHT22;3800;48.922;9.444;2023-03-14T07:16:20;9.20;99.90
7518;DHT22;3800;48.922;9.444;2023-03-14T07:18:48;9.30;99.90
7518;DHT22;3800;48.922;9.444;2023-03-14T07:21:15;9.30;99.90
7518;DHT22;3800;48.922;9.444;2023-03-14T07:23:43;9.40;99.90
7518;DHT22;3800;48.922;9.444;2023-03-14T07:26:10;9.40;99.90
7518;DHT22;3800;48.922;9.444;2023-03-14T07:28:38;9.50;99.90
7518;DHT22;3800;48.922;9.444;2023-03-14T07:31:06;9.60;99.90
7518;DHT22;3800;48.922;9.444;2023-03-14T07:33:33;9.70;99.90
7518;DHT22;3800;48.922;9.444;2023-03-14T07:36:01;9.90;99.90
7518;DHT22;3800;48.922;9.444;2023-03-14T07:38:30;9.90;99.90
7518;DHT22;3800;48.922;9.444;2023-03-14T07:41:00;9.90;99.90
7518;DHT22;3800;48.922;9.444;2023-03-14T07:43:27;9.90;99.90
7518;DHT22;3800;48.922;9.444;2023-03-14T07:45:55;9.80;99.90
7518;DHT22;3800;48.922;9.444;2023-03-14T07:48:23;9.80;99.90
7518;DHT22;3800;48.922;9.444;2023-03-14T07:50:51;9.90;99.90
7518;DHT22;3800;48.922;9.444;2023-03-14T07:53:18;9.90;99.90
7518;DHT22;3800;48.922;9.444;2023-03-14T07:55:46;10.00;99.90
7518;DHT22;3800;48.922;9.444;2023-03-14T07:58:14;10.00;99.90
7518;DHT22;3800;48.922;9.444;2023-03-14T08:00:43;10.30;99.90
7518;DHT22;3800;48.922;9.444;2023-03-14T08:03:11;10.40;99.90
7518;DHT22;3800;48.922;9.444;2023-03-14T08:05:39;10.40;99.90
7518;DHT22;3800;48.922;9.444;2023-03-14T08:08:08;10.50;99.90
7518;DHT22;3800;48.922;9.444;2023-03-14T08:10:35;10.40;99.90
7518;DHT22;3800;48.922;9.444;2023-03-14T08:13:03;10.50;99.90
7518;DHT22;3800;48.922;9.444;2023-03-14T08:15:30;10.70;99.90
7518;DHT22;3800;48.922;9.444;2023-03-14T08:17:58;10.70;99.90
7518;DHT22;3800;48.922;9.444;2023-03-14T08:20:27;10.80;99.90
7518;DHT22;3800;48.922;9.444;2023-03-14T08:22:57;11.00;99.90
7518;DHT22;3800;48.922;9.444;2023-03-14T08:25:24;11.10;99.90
7518;DHT22;3800;48.922;9.444;2023-03-14T08:27:52;11.30;99.90
7518;DHT22;3800;48.922;9.444;2023-03-14T08:30:20;11.30;99.90
7518;DHT22;3800;48.922;9.444;2023-03-14T08:32:48;11.30;99.90
7518;DHT22;3800;48.922;9.444;2023-03-14T08:35:17;11.40;99.90
7518;DHT22;3800;48.922;9.444;2023-03-14T08:37:46;11.60;99.90
7518;DHT22;3800;48.922;9.444;2023-03-14T08:40:14;11.60;99.90
7518;DHT22;3800;48.922;9.444;2023-03-14T08:42:41;11.80;99.90
7518;DHT22;3800;48.922;9.444;2023-03-14T08:45:11;11.90;99.90
7518;DHT22;3800;48.922;9.444;2023-03-14T08:47:38;12.00;99.90
7518;DHT22;3800;48.922;9.444;2023-03-14T08:50:06;12.10;99.90
7518;DHT22;3800;48.922;9.444;2023-03-14T08:52:34;12.00;99.90
7518;DHT22;3800;48.922;9.444;2023-03-14T08:55:02;12.00;99.90
7518;DHT22;3800;48.922;9.444;2023-03-14T08:57:30;11.90;99.90
7518;DHT22;3800;48.922;9.444;2023-03-14T08:59:57;11.90;99.90
7518;DHT22;3800;48.922;9.444;2023-03-14T09:02:25;11.90;99.90
7518;DHT22;3800;48.922;9.444;2023-03-14T09:04:53;11.90;99.90
7518;DHT22;3800;48.922;9.444;2023-03-14T09:07:20;12.00;99.90
7518;DHT22;3800;48.922;9.444;2023-03-14T09:09:49;12.00;99.90
7518;DHT22;3800;48.922;9.444;2023-03-14T09:12:17;12.00;99.90
7518;DHT22;3800;48.922;9.444;2023-03-14T09:14:44;12.00;99.90
7518;DHT22;3800;48.922;9.444;2023-03-14T09:17:12;12.00;99.90
7518;DHT22;3800;48.922;9.444;2023-03-14T09:19:40;12.00;99.90
7518;DHT22;3800;48.922;9.444;2023-03-14T09:22:09;12.00;99.90
7518;DHT22;3800;48.922;9.444;2023-03-14T09:24:37;12.00;99.90
7518;DHT22;3800;48.922;9.444;2023-03-14T09:27:05;12.10;99.90
7518;DHT22;3800;48.922;9.444;2023-03-14T09:29:33;12.00;99.90
7518;DHT22;3800;48.922;9.444;2023-03-14T09:32:01;12.00;99.90
7518;DHT22;3800;48.922;9.444;2023-03-14T09:34:29;11.90;99.90
7518;DHT22;3800;48.922;9.444;2023-03-14T09:36:59;11.90;99.90
7518;DHT22;3800;48.922;9.444;2023-03-14T09:39:27;11.90;99.90
7518;DHT22;3800;48.922;9.444;2023-03-14T09:41:55;11.90;99.90
7518;DHT22;3800;48.922;9.444;2023-03-14T09:44:26;11.90;99.90
7518;DHT22;3800;48.922;9.444;2023-03-14T09:46:53;11.80;99.90
7518;DHT22;3800;48.922;9.444;2023-03-14T09:49:23;11.80;99.90
7518;DHT22;3800;48.922;9.444;2023-03-14T09:51:50;11.80;99.90
7518;DHT22;3800;48.922;9.444;2023-03-14T09:54:30;11.80;99.90
7518;DHT22;3800;48.922;9.444;2023-03-14T09:56:57;11.80;99.90
7518;DHT22;3800;48.922;9.444;2023-03-14T09:59:28;11.80;99.90
7518;DHT22;3800;48.922;9.444;2023-03-14T10:01:58;11.80;99.90
7518;DHT22;3800;48.922;9.444;2023-03-14T10:04:25;11.80;99.90
7518;DHT22;3800;48.922;9.444;2023-03-14T10:06:52;11.80;99.90
7518;DHT22;3800;48.922;9.444;2023-03-14T10:09:21;11.90;99.90
7518;DHT22;3800;48.922;9.444;2023-03-14T10:12:03;11.90;99.90
7518;DHT22;3800;48.922;9.444;2023-03-14T10:14:33;12.00;99.90
7518;DHT22;3800;48.922;9.444;2023-03-14T10:17:07;12.10;99.90
7518;DHT22;3800;48.922;9.444;2023-03-14T10:19:34;12.10;99.90
7518;DHT22;3800;48.922;9.444;2023-03-14T10:22:03;12.20;99.90
7518;DHT22;3800;48.922;9.444;2023-03-14T10:24:30;12.20;99.90
7518;DHT22;3800;48.922;9.444;2023-03-14T10:27:00;12.30;99.90
7518;DHT22;3800;48.922;9.444;2023-03-14T10:29:26;12.30;99.90
7518;DHT22;3800;48.922;9.444;2023-03-14T10:31:58;12.50;99.90
7518;DHT22;3800;48.922;9.444;2023-03-14T10:34:26;12.50;99.90
7518;DHT22;3800;48.922;9.444;2023-03-14T10:36:53;12.60;99.90
7518;DHT22;3800;48.922;9.444;2023-03-14T10:39:24;12.60;99.90
7518;DHT22;3800;48.922;9.444;2023-03-14T10:41:53;12.50;99.90
7518;DHT22;3800;48.922;9.444;2023-03-14T10:44:21;12.50;99.90
7518;DHT22;3800;48.922;9.444;2023-03-14T10:47:02;12.50;99.90
7518;DHT22;3800;48.922;9.444;2023-03-14T10:49:33;12.50;99.90
7518;DHT22;3800;48.922;9.444;2023-03-14T10:52:20;12.40;99.90
7518;DHT22;3800;48.922;9.444;2023-03-14T10:54:48;12.40;99.90
7518;DHT22;3800;48.922;9.444;2023-03-14T10:57:15;12.30;99.90
7518;DHT22;3800;48.922;9.444;2023-03-14T10:59:43;12.30;99.90
7518;DHT22;3800;48.922;9.444;2023-03-14T11:07:50;12.20;99.90
7518;DHT22;3800;48.922;9.444;2023-03-14T11:10:24;12.00;99.90
7518;DHT22;3800;48.922;9.444;2023-03-14T11:12:54;12.00;99.90
7518;DHT22;3800;48.922;9.444;2023-03-14T11:18:16;11.80;99.90
7518;DHT22;3800;48.922;9.444;2023-03-14T11:20:45;11.80;99.90
7518;DHT22;3800;48.922;9.444;2023-03-14T11:23:18;11.70;99.90
7518;DHT22;3800;48.922;9.444;2023-03-14T11:28:36;11.70;99.90
7518;DHT22;3800;48.922;9.444;2023-03-14T11:31:09;11.60;99.90
7518;DHT22;3800;48.922;9.444;2023-03-14T11:33:38;11.50;99.90
7518;DHT22;3800;48.922;9.444;2023-03-14T11:36:07;11.40;99.90
7518;DHT22;3800;48.922;9.444;2023-03-14T11:38:38;11.50;99.90
7518;DHT22;3800;48.922;9.444;2023-03-14T11:41:08;11.50;99.90
7518;DHT22;3800;48.922;9.444;2023-03-14T11:43:33;11.50;99.90
7518;DHT22;3800;48.922;9.444;2023-03-14T11:46:04;11.50;99.90
7518;DHT22;3800;48.922;9.444;2023-03-14T11:51:23;11.40;99.90
7518;DHT22;3800;48.922;9.444;2023-03-14T11:53:51;11.40;99.90
7518;DHT22;3800;48.922;9.444;2023-03-14T11:56:25;11.40;99.90
7518;DHT22;3800;48.922;9.444;2023-03-14T11:58:53;11.30;99.90
7518;DHT22;3800;48.922;9.444;2023-03-14T12:01:19;11.30;99.90
7518;DHT22;3800;48.922;9.444;2023-03-14T12:04:00;11.20;99.90
7518;DHT22;3800;48.922;9.444;2023-03-14T12:06:32;11.20;99.90
7518;DHT22;3800;48.922;9.444;2023-03-14T12:08:59;11.20;99.90
7518;DHT22;3800;48.922;9.444;2023-03-14T12:11:47;11.20;99.90
7518;DHT22;3800;48.922;9.444;2023-03-14T12:14:19;11.20;99.90
7518;DHT22;3800;48.922;9.444;2023-03-14T12:16:45;11.10;99.90
7518;DHT22;3800;48.922;9.444;2023-03-14T12:19:47;11.00;99.90
7518;DHT22;3800;48.922;9.444;2023-03-14T12:22:31;10.90;99.90
7518;DHT22;3800;48.922;9.444;2023-03-14T12:24:44;10.80;99.90
7518;DHT22;3800;48.922;9.444;2023-03-14T12:27:10;10.70;99.90
7518;DHT22;3800;48.922;9.444;2023-03-14T12:29:59;10.50;99.90
7518;DHT22;3800;48.922;9.444;2023-03-14T12:32:26;10.50;99.90
7518;DHT22;3800;48.922;9.444;2023-03-14T12:34:53;10.50;99.90
7518;DHT22;3800;48.922;9.444;2023-03-14T12:37:42;10.50;99.90
7518;DHT22;3800;48.922;9.444;2023-03-14T12:40:17;10.60;99.90
7518;DHT22;3800;48.922;9.444;2023-03-14T12:42:54;10.50;99.90
7518;DHT22;3800;48.922;9.444;2023-03-14T12:45:27;10.50;99.90
7518;DHT22;3800;48.922;9.444;2023-03-14T12:48:00;10.50;99.90
7518;DHT22;3800;48.922;9.444;2023-03-14T12:50:25;10.60;99.90
7518;DHT22;3800;48.922;9.444;2023-03-14T12:53:36;10.50;99.90
7518;DHT22;3800;48.922;9.444;2023-03-14T12:55:56;10.20;99.90
7518;DHT22;3800;48.922;9.444;2023-03-14T12:58:31;9.90;99.90
7518;DHT22;3800;48.922;9.444;2023-03-14T13:01:00;9.90;99.90
7518;DHT22;3800;48.922;9.444;2023-03-14T13:03:43;9.60;99.90
7518;DHT22;3800;48.922;9.444;2023-03-14T13:06:09;9.30;99.90
7518;DHT22;3800;48.922;9.444;2023-03-14T13:08:41;9.20;99.90
7518;DHT22;3800;48.922;9.444;2023-03-14T13:11:12;9.00;99.90
7518;DHT22;3800;48.922;9.444;2023-03-14T13:13:46;8.90;99.90
7518;DHT22;3800;48.922;9.444;2023-03-14T13:16:18;9.10;99.90
7518;DHT22;3800;48.922;9.444;2023-03-14T13:18:46;9.20;99.90
7518;DHT22;3800;48.922;9.444;2023-03-14T13:21:21;9.20;99.90
7518;DHT22;3800;48.922;9.444;2023-03-14T13:24:00;9.30;99.90
7518;DHT22;3800;48.922;9.444;2023-03-14T13:26:34;9.40;99.90
7518;DHT22;3800;48.922;9.444;2023-03-14T13:29:00;9.50;99.90
7518;DHT22;3800;48.922;9.444;2023-03-14T13:31:28;9.60;99.90
7518;DHT22;3800;48.922;9.444;2023-03-14T13:33:57;9.60;99.90
7518;DHT22;3800;48.922;9.444;2023-03-14T13:36:25;9.50;99.90
7518;DHT22;3800;48.922;9.444;2023-03-14T13:38:58;9.50;99.90
7518;DHT22;3800;48.922;9.444;2023-03-14T13:41:24;9.50;99.90
7518;DHT22;3800;48.922;9.444;2023-03-14T13:43:52;9.50;99.90
7518;DHT22;3800;48.922;9.444;2023-03-14T13:46:24;9.50;99.90
7518;DHT22;3800;48.922;9.444;2023-03-14T13:48:56;9.50;99.90
7518;DHT22;3800;48.922;9.444;2023-03-14T13:51:22;9.50;99.90
7518;DHT22;3800;48.922;9.444;2023-03-14T13:53:51;9.60;99.90
7518;DHT22;3800;48.922;9.444;2023-03-14T13:56:20;9.60;99.90
7518;DHT22;3800;48.922;9.444;2023-03-14T13:58:50;9.60;99.90
7518;DHT22;3800;48.922;9.444;2023-03-14T14:01:23;9.50;99.90
7518;DHT22;3800;48.922;9.444;2023-03-14T14:03:49;9.50;99.90
7518;DHT22;3800;48.922;9.444;2023-03-14T14:06:22;9.50;99.90
7518;DHT22;3800;48.922;9.444;2023-03-14T14:08:47;9.60;99.90
7518;DHT22;3800;48.922;9.444;2023-03-14T14:11:19;9.60;99.60
7518;DHT22;3800;48.922;9.444;2023-03-14T14:13:44;9.60;99.90
7518;DHT22;3800;48.922;9.444;2023-03-14T14:16:11;9.50;99.90
7518;DHT22;3800;48.922;9.444;2023-03-14T14:18:40;9.40;99.90
7518;DHT22;3800;48.922;9.444;2023-03-14T14:21:08;9.30;99.70
7518;DHT22;3800;48.922;9.444;2023-03-14T14:23:35;9.20;99.90
7518;DHT22;3800;48.922;9.444;2023-03-14T14:26:04;9.20;99.90
7518;DHT22;3800;48.922;9.444;2023-03-14T14:28:33;9.10;99.90
7518;DHT22;3800;48.922;9.444;2023-03-14T14:31:02;9.10;99.90
7518;DHT22;3800;48.922;9.444;2023-03-14T14:33:28;9.00;99.90
7518;DHT22;3800;48.922;9.444;2023-03-14T14:35:58;8.90;99.40
7518;DHT22;3800;48.922;9.444;2023-03-14T14:38:26;8.90;99.10
7518;DHT22;3800;48.922;9.444;2023-03-14T14:40:58;8.80;99.30
7518;DHT22;3800;48.922;9.444;2023-03-14T14:43:23;8.80;99.00
7518;DHT22;3800;48.922;9.444;2023-03-14T14:45:51;8.80;99.10
7518;DHT22;3800;48.922;9.444;2023-03-14T14:48:23;8.80;98.50
7518;DHT22;3800;48.922;9.444;2023-03-14T14:50:54;8.80;98.70
7518;DHT22;3800;48.922;9.444;2023-03-14T14:53:25;8.70;98.10
7518;DHT22;3800;48.922;9.444;2023-03-14T14:55:52;8.70;98.40
7518;DHT22;3800;48.922;9.444;2023-03-14T14:58:24;8.70;97.60
7518;DHT22;3800;48.922;9.444;2023-03-14T15:00:52;8.70;97.80
7518;DHT22;3800;48.922;9.444;2023-03-14T15:03:18;8.70;97.60
7518;DHT22;3800;48.922;9.444;2023-03-14T15:05:47;8.70;97.10
7518;DHT22;3800;48.922;9.444;2023-03-14T15:08:14;8.70;97.90
7518;DHT22;3800;48.922;9.444;2023-03-14T15:10:42;8.70;97.90
7518;DHT22;3800;48.922;9.444;2023-03-14T15:13:10;8.70;98.40
7518;DHT22;3800;48.922;9.444;2023-03-14T15:15:37;8.70;98.40
7518;DHT22;3800;48.922;9.444;2023-03-14T15:18:15;8.70;98.10
7518;DHT22;3800;48.922;9.444;2023-03-14T15:20:41;8.70;97.40
7518;DHT22;3800;48.922;9.444;2023-03-14T15:23:10;8.70;97.50
7518;DHT22;3800;48.922;9.444;2023-03-14T15:25:37;8.70;98.30
7518;DHT22;3800;48.922;9.444;2023-03-14T15:28:11;8.80;97.80
7518;DHT22;3800;48.922;9.444;2023-03-14T15:30:37;8.90;97.10
7518;DHT22;3800;48.922;9.444;2023-03-14T15:33:05;9.10;97.70
7518;DHT22;3800;48.922;9.444;2023-03-14T15:35:35;9.40;97.70
7518;DHT22;3800;48.922;9.444;2023-03-14T15:38:01;9.40;97.70
7518;DHT22;3800;48.922;9.444;2023-03-14T15:40:29;9.50;98.00
7518;DHT22;3800;48.922;9.444;2023-03-14T15:42:57;9.60;96.50
7518;DHT22;3800;48.922;9.444;2023-03-14T15:45:26;9.50;97.00
7518;DHT22;3800;48.922;9.444;2023-03-14T15:47:53;9.50;96.50
7518;DHT22;3800;48.922;9.444;2023-03-14T15:50:21;9.50;97.20
7518;DHT22;3800;48.922;9.444;2023-03-14T15:52:49;9.40;96.90
7518;DHT22;3800;48.922;9.444;2023-03-14T15:55:17;9.20;97.70
7518;DHT22;3800;48.922;9.444;2023-03-14T15:57:45;9.20;97.90
7518;DHT22;3800;48.922;9.444;2023-03-14T16:00:14;9.10;97.50
7518;DHT22;3800;48.922;9.444;2023-03-14T16:02:42;9.10;97.20
7518;DHT22;3800;48.922;9.444;2023-03-14T16:05:09;9.20;96.50
7518;DHT22;3800;48.922;9.444;2023-03-14T16:07:37;9.20;96.90
7518;DHT22;3800;48.922;9.444;2023-03-14T16:10:06;9.20;97.30
7518;DHT22;3800;48.922;9.444;2023-03-14T16:12:34;9.20;97.70
7518;DHT22;3800;48.922;9.444;2023-03-14T16:15:02;9.20;97.60
7518;DHT22;3800;48.922;9.444;2023-03-14T16:17:31;9.20;96.70
7518;DHT22;3800;48.922;9.444;2023-03-14T16:19:58;9.20;97.30
7518;DHT22;3800;48.922;9.444;2023-03-14T16:22:26;9.20;97.40
7518;DHT22;3800;48.922;9.444;2023-03-14T16:24:54;9.10;97.70
7518;DHT22;3800;48.922;9.444;2023-03-14T16:27:21;9.10;97.90
7518;DHT22;3800;48.922;9.444;2023-03-14T16:29:49;9.10;98.50
7518;DHT22;3800;48.922;9.444;2023-03-14T16:32:17;9.00;99.00
7518;DHT22;3800;48.922;9.444;2023-03-14T16:34:44;9.00;98.60
7518;DHT22;3800;48.922;9.444;2023-03-14T16:37:13;8.70;99.90